Time;durP1;ratioP1;P1;durP2;ratioP2;P2;SDS_P1;SDS_P2;PMS_P1;PMS_P2;Temp;Humidity;BMP_temperature;BMP_pressure;BME280_temperature;BME280_humidity;BME280_pressure;Samples;Min_cycle;Max_cycle;Signal;HPM_P1;HPM_P2
2023/09/05 00:02:14;;;;;;;2.58;1.98;;;;;;;17.70;67.91;95121.75;5064758;28;20352;-85
2023/09/05 00:04:42;;;;;;;2.35;1.80;;;;;;;17.77;67.52;95128.97;5064776;28;20571;-84
2023/09/05 00:07:09;;;;;;;2.97;1.80;;;;;;;17.81;67.12;95126.00;5065885;28;20039;-84
2023/09/05 00:09:34;;;;;;;2.00;1.40;;;;;;;17.70;66.73;95116.19;5066416;28;20102;-84
2023/09/05 00:12:00;;;;;;;2.72;1.60;;;;;;;17.65;66.92;95125.22;5065456;28;20498;-82
2023/09/05 00:14:25;;;;;;;1.45;1.20;;;;;;;17.61;67.61;95129.44;5066457;28;20028;-85
2023/09/05 00:16:51;;;;;;;2.17;1.55;;;;;;;17.59;68.24;95121.56;5065553;28;20483;-84
2023/09/05 00:19:16;;;;;;;2.05;1.60;;;;;;;17.58;68.21;95108.16;5064339;28;20031;-84
2023/09/05 00:21:41;;;;;;;2.65;1.80;;;;;;;17.59;68.53;95106.91;5065682;28;20392;-83
2023/09/05 00:24:27;;;;;;;1.83;1.45;;;;;;;17.63;68.42;95108.25;5064114;28;20144;-86
2023/09/05 00:26:56;;;;;;;2.40;1.83;;;;;;;17.63;68.45;95108.25;5066315;28;20029;-83
2023/09/05 00:29:23;;;;;;;1.67;1.30;;;;;;;17.65;68.18;95102.97;5065443;28;20036;-85
2023/09/05 00:31:49;;;;;;;1.92;1.30;;;;;;;17.61;68.12;95099.63;5065878;28;20024;-83
2023/09/05 00:34:14;;;;;;;1.92;1.50;;;;;;;17.64;68.43;95112.56;5063917;28;20021;-83
2023/09/05 00:36:41;;;;;;;1.85;1.63;;;;;;;17.66;68.48;95106.50;5067240;28;20111;-85
2023/09/05 00:39:07;;;;;;;2.35;1.42;;;;;;;17.63;68.44;95105.47;5051437;28;20125;-86
2023/09/05 00:41:32;;;;;;;2.20;1.50;;;;;;;17.64;68.13;95093.09;5068353;28;20048;-84
2023/09/05 00:43:59;;;;;;;1.90;1.40;;;;;;;17.67;68.05;95096.94;5068399;28;20028;-84
2023/09/05 00:46:25;;;;;;;4.15;1.50;;;;;;;17.66;67.79;95098.97;5067597;28;20032;-84
2023/09/05 00:48:52;;;;;;;1.77;1.40;;;;;;;17.72;68.03;95088.72;5069706;28;20111;-85
2023/09/05 00:51:21;;;;;;;1.90;1.48;;;;;;;17.69;68.04;95089.66;5068680;28;20630;-85
2023/09/05 00:53:46;;;;;;;2.55;1.58;;;;;;;17.64;68.12;95095.88;5068124;28;20094;-84
2023/09/05 00:56:11;;;;;;;1.80;1.40;;;;;;;17.61;67.54;95087.75;5068947;28;20028;-83
2023/09/05 00:58:37;;;;;;;2.83;2.08;;;;;;;17.65;67.40;95091.09;5069443;28;20501;-85
2023/09/05 01:01:02;;;;;;;2.63;2.10;;;;;;;17.64;67.87;95095.88;5068291;28;20039;-85
2023/09/05 01:03:28;;;;;;;2.42;2.17;;;;;;;17.63;67.91;95090.81;5069050;28;20019;-84
2023/09/05 01:05:57;;;;;;;2.20;1.77;;;;;;;17.64;67.03;95090.31;5069702;28;20044;-84
2023/09/05 01:08:43;;;;;;;2.70;2.15;;;;;;;17.50;67.02;95091.09;5050424;28;20359;-84
2023/09/05 01:11:08;;;;;;;2.80;2.10;;;;;;;17.41;67.75;95091.94;5067416;28;20024;-83
2023/09/05 01:13:37;;;;;;;4.10;2.72;;;;;;;17.40;67.67;95095.19;5067479;28;20036;-84
2023/09/05 01:16:03;;;;;;;3.10;2.45;;;;;;;17.37;68.16;95090.59;5067771;28;20024;-84
2023/09/05 01:18:39;;;;;;;3.53;2.83;;;;;;;17.36;67.63;95095.38;5069007;28;20574;-84
2023/09/05 01:21:20;;;;;;;3.20;2.90;;;;;;;17.28;68.12;95088.69;5067577;28;20031;-85
2023/09/05 01:23:55;;;;;;;2.63;2.42;;;;;;;17.37;68.88;95099.69;5072279;28;20108;-86
2023/09/05 01:26:20;;;;;;;4.75;2.50;;;;;;;17.45;68.82;95123.09;5070532;28;20403;-85
2023/09/05 01:28:46;;;;;;;2.97;2.20;;;;;;;17.48;68.56;95119.34;5054120;28;20085;-85
2023/09/05 01:31:13;;;;;;;2.72;1.90;;;;;;;17.52;67.42;95116.38;5070778;28;20089;-85
2023/09/05 01:33:41;;;;;;;2.40;1.73;;;;;;;17.51;67.82;95118.41;5070598;28;20028;-83
2023/09/05 01:36:07;;;;;;;7.13;2.22;;;;;;;17.49;67.89;95120.09;5089413;28;20047;-84
2023/09/05 01:38:35;;;;;;;2.13;1.58;;;;;;;17.44;68.25;95107.66;5088468;28;20032;-85
2023/09/05 01:41:01;;;;;;;3.13;1.90;;;;;;;17.47;68.78;95092.03;5088692;28;20530;-84
2023/09/05 01:43:26;;;;;;;2.92;2.10;;;;;;;17.50;68.71;95097.41;5088250;28;20046;-83
2023/09/05 01:45:52;;;;;;;3.22;1.73;;;;;;;17.47;68.59;95090.03;5088887;28;20024;-83
2023/09/05 01:48:17;;;;;;;2.42;1.92;;;;;;;17.44;68.66;95082.66;5087610;28;20518;-85
2023/09/05 01:50:43;;;;;;;2.25;1.70;;;;;;;17.52;68.77;95099.72;5088426;28;20020;-84
2023/09/05 01:53:08;;;;;;;2.50;2.13;;;;;;;17.54;68.78;95086.09;5088728;28;20428;-84
2023/09/05 01:55:33;;;;;;;2.78;1.80;;;;;;;17.67;68.37;95088.59;5087690;28;20438;-82
2023/09/05 01:57:59;;;;;;;2.78;2.10;;;;;;;17.64;68.29;95084.75;5088574;28;20024;-84
2023/09/05 02:00:24;;;;;;;3.40;2.55;;;;;;;17.66;68.35;95084.28;5087283;28;20019;-84
2023/09/05 02:02:49;;;;;;;3.58;2.40;;;;;;;17.65;68.22;95088.31;5088546;28;20073;-83
2023/09/05 02:05:15;;;;;;;3.13;2.20;;;;;;;17.61;68.43;95096.84;5090155;28;20036;-83
2023/09/05 02:07:40;;;;;;;3.30;2.38;;;;;;;17.68;68.34;95096.47;5094659;28;20028;-82
2023/09/05 02:10:06;;;;;;;4.70;2.53;;;;;;;17.74;67.34;95108.47;5088869;28;20107;-84
2023/09/05 02:12:33;;;;;;;3.47;2.33;;;;;;;17.68;67.58;95106.81;5087930;28;20028;-84
2023/09/05 02:15:00;;;;;;;4.05;2.50;;;;;;;17.68;67.80;95104.03;5088547;28;20020;-84
2023/09/05 02:17:30;;;;;;;4.28;3.30;;;;;;;17.67;67.96;95106.06;5087175;28;20046;-85
2023/09/05 02:19:58;;;;;;;2.70;2.22;;;;;;;17.65;68.21;95104.97;5070532;28;20035;-85
2023/09/05 02:22:24;;;;;;;2.80;2.28;;;;;;;17.65;68.44;95119.66;5087705;28;20055;-84
2023/09/05 02:24:50;;;;;;;3.20;2.80;;;;;;;17.69;68.69;95123.00;5087884;28;20082;-84
2023/09/05 02:27:15;;;;;;;3.00;2.70;;;;;;;17.69;68.27;95116.69;5069600;28;20032;-84
2023/09/05 02:29:41;;;;;;;4.65;3.00;;;;;;;17.65;67.76;95111.31;5069423;28;20080;-85
2023/09/05 02:32:06;;;;;;;5.25;3.33;;;;;;;17.70;68.07;95123.78;5088023;28;20028;-85
2023/09/05 02:34:32;;;;;;;3.85;3.22;;;;;;;17.75;67.68;95126.69;5068974;28;20077;-85
2023/09/05 02:36:59;;;;;;;5.68;3.40;;;;;;;17.72;67.81;95121.31;5087994;28;20398;-85
2023/09/05 02:39:25;;;;;;;6.40;3.45;;;;;;;17.76;67.53;95117.09;5086710;28;20107;-83
2023/09/05 02:41:50;;;;;;;5.55;3.90;;;;;;;17.70;67.78;95113.41;5088040;28;20455;-85
2023/09/05 02:44:16;;;;;;;5.07;3.67;;;;;;;17.66;67.66;95112.88;5069088;28;20100;-84
2023/09/05 02:46:41;;;;;;;3.97;3.45;;;;;;;17.70;67.29;95118.22;5087256;28;20028;-84
2023/09/05 02:49:07;;;;;;;4.88;3.92;;;;;;;17.67;67.70;95108.84;5087750;28;20077;-86
2023/09/05 02:51:32;;;;;;;6.60;4.13;;;;;;;17.64;67.64;95104.22;5086709;28;20023;-83
2023/09/05 02:54:00;;;;;;;5.85;4.53;;;;;;;17.69;67.90;95111.13;5069764;28;20024;-83
2023/09/05 02:56:25;;;;;;;7.90;5.40;;;;;;;17.67;67.57;95102.50;5069234;28;20085;-83
2023/09/05 02:58:51;;;;;;;5.82;4.90;;;;;;;17.67;67.42;95106.06;5068877;28;20062;-84
2023/09/05 03:01:16;;;;;;;6.40;5.50;;;;;;;17.66;67.91;95115.66;5068129;28;20039;-85
2023/09/05 03:03:42;;;;;;;6.68;5.70;;;;;;;17.60;67.73;95114.75;5086685;28;20020;-83
2023/09/05 03:06:12;;;;;;;6.57;5.88;;;;;;;17.61;67.44;95119.09;5068951;28;20389;-84
2023/09/05 03:08:38;;;;;;;8.63;6.43;;;;;;;17.64;67.07;95112.56;5086864;28;20020;-84
2023/09/05 03:11:04;;;;;;;7.70;6.50;;;;;;;17.72;66.61;95118.53;5069320;28;20023;-84
2023/09/05 03:13:30;;;;;;;7.90;6.40;;;;;;;17.66;66.19;95128.75;5086625;28;20530;-84
2023/09/05 03:15:55;;;;;;;8.77;6.82;;;;;;;17.61;66.15;95124.66;5086888;28;20086;-83
2023/09/05 03:18:20;;;;;;;7.70;6.50;;;;;;;17.35;66.30;95093.09;5086502;28;20031;-82
2023/09/05 03:20:46;;;;;;;7.15;6.13;;;;;;;17.44;66.59;95127.13;5051659;28;20035;-83
2023/09/05 03:23:13;;;;;;;7.32;6.53;;;;;;;17.52;66.27;95133.81;5086515;28;20028;-84
2023/09/05 03:25:38;;;;;;;8.57;7.07;;;;;;;17.43;66.44;95128.38;5086816;28;20039;-84
2023/09/05 03:28:04;;;;;;;8.57;7.68;;;;;;;17.48;66.17;95141.56;5086997;28;20027;-84
2023/09/05 03:30:30;;;;;;;10.95;8.73;;;;;;;17.47;65.82;95133.72;5086581;28;20145;-84
2023/09/05 03:32:55;;;;;;;8.50;7.68;;;;;;;17.43;65.95;95147.81;5086681;28;20112;-83
2023/09/05 03:35:21;;;;;;;8.93;8.02;;;;;;;17.40;65.54;95140.44;5068055;28;20035;-83
2023/09/05 03:37:46;;;;;;;9.43;7.85;;;;;;;17.39;65.99;95149.25;5068191;28;20032;-84
2023/09/05 03:40:12;;;;;;;9.27;7.47;;;;;;;17.44;65.62;95154.16;5086171;28;20035;-84
2023/09/05 03:42:38;;;;;;;8.68;7.50;;;;;;;17.42;65.72;95154.59;5086360;28;20108;-83
2023/09/05 03:45:04;;;;;;;8.50;7.22;;;;;;;17.37;65.81;95146.94;5086301;28;20406;-84
2023/09/05 03:47:29;;;;;;;10.18;7.40;;;;;;;17.44;65.23;95163.25;5068130;28;20020;-85
2023/09/05 03:49:55;;;;;;;9.85;7.45;;;;;;;17.45;65.19;95158.47;5086479;28;20107;-85
2023/09/05 03:52:20;;;;;;;9.25;7.75;;;;;;;17.42;64.87;95153.84;5067655;28;20035;-84
2023/09/05 03:54:46;;;;;;;8.43;7.53;;;;;;;17.38;65.41;95159.59;5086168;28;20194;-83
2023/09/05 03:57:11;;;;;;;9.75;8.50;;;;;;;17.34;65.06;95159.00;5085731;28;20024;-85
2023/09/05 03:59:36;;;;;;;10.63;8.43;;;;;;;17.33;65.25;95140.03;5086785;28;20507;-84
2023/09/05 04:02:02;;;;;;;9.73;8.00;;;;;;;17.27;65.64;95153.06;5086147;28;20359;-83
2023/09/05 04:04:27;;;;;;;9.00;7.75;;;;;;;17.33;65.17;95151.91;5086531;28;20031;-84
2023/09/05 04:06:53;;;;;;;10.73;8.57;;;;;;;17.23;65.29;95139.34;5086728;28;20031;-85
2023/09/05 04:09:18;;;;;;;9.02;8.05;;;;;;;17.19;65.78;95142.28;5085944;28;20024;-84
2023/09/05 04:11:43;;;;;;;9.40;8.45;;;;;;;17.18;65.84;95135.19;5069645;28;20562;-84
2023/09/05 04:14:09;;;;;;;12.02;8.52;;;;;;;17.25;65.61;95145.19;5089711;28;20023;-84
2023/09/05 04:16:34;;;;;;;11.65;8.30;;;;;;;17.17;65.92;95144.03;5090598;28;20024;-84
2023/09/05 04:19:00;;;;;;;8.98;7.97;;;;;;;17.15;65.93;95133.41;5089585;28;20040;-85
2023/09/05 04:21:25;;;;;;;10.05;8.43;;;;;;;17.21;66.14;95142.59;5090495;28;20044;-85
2023/09/05 04:23:50;;;;;;;10.63;8.13;;;;;;;17.25;65.90;95156.28;5071557;28;20044;-85
2023/09/05 04:26:16;;;;;;;10.32;8.70;;;;;;;17.26;65.72;95157.81;5090328;28;20043;-84
2023/09/05 04:28:41;;;;;;;10.18;8.63;;;;;;;17.27;66.22;95153.81;5090401;28;20020;-85
2023/09/05 04:31:06;;;;;;;10.93;9.30;;;;;;;17.28;66.11;95152.56;5089569;28;20670;-84
2023/09/05 04:33:36;;;;;;;9.60;8.32;;;;;;;17.36;65.57;95158.53;5090338;28;20073;-83
2023/09/05 04:36:05;;;;;;;10.98;8.73;;;;;;;17.40;65.81;95162.66;5072004;28;20024;-86
2023/09/05 04:38:31;;;;;;;10.93;8.98;;;;;;;17.47;64.74;95161.50;5089990;28;20028;-84
2023/09/05 04:41:03;;;;;;;12.05;9.07;;;;;;;17.39;64.86;95157.59;5089005;28;20062;-84
2023/09/05 04:43:32;;;;;;;10.30;9.20;;;;;;;17.36;64.86;95158.53;5071781;28;20032;-82
2023/09/05 04:45:57;;;;;;;10.73;8.95;;;;;;;17.36;64.98;95162.06;5089939;28;20524;-84
2023/09/05 04:48:24;;;;;;;12.45;9.00;;;;;;;17.33;65.38;95157.47;5089368;28;20024;-84
2023/09/05 04:50:49;;;;;;;9.80;8.85;;;;;;;17.36;65.49;95155.75;5089667;28;20028;-84
2023/09/05 04:53:15;;;;;;;11.13;10.02;;;;;;;17.50;65.03;95160.56;5089477;28;20016;-84
2023/09/05 04:55:42;;;;;;;12.02;9.48;;;;;;;17.49;64.66;95157.03;5089984;28;20410;-83
2023/09/05 04:58:08;;;;;;;12.93;10.32;;;;;;;17.50;64.84;95152.25;5088757;28;20024;-85
2023/09/05 05:00:34;;;;;;;11.88;10.15;;;;;;;17.51;64.86;95153.78;5089814;28;20020;-83
2023/09/05 05:02:59;;;;;;;12.27;9.40;;;;;;;17.52;65.03;95158.84;5089096;28;20098;-84
2023/09/05 05:05:25;;;;;;;10.88;9.77;;;;;;;17.49;65.48;95157.03;5089137;28;20028;-84
2023/09/05 05:07:50;;;;;;;12.13;9.40;;;;;;;17.55;65.35;95168.25;5090133;28;20020;-85
2023/09/05 05:10:16;;;;;;;11.88;10.43;;;;;;;17.67;65.10;95166.44;5088566;28;20368;-85
2023/09/05 05:12:41;;;;;;;15.73;10.50;;;;;;;17.59;64.56;95163.25;5089866;28;20024;-84
2023/09/05 05:15:08;;;;;;;12.85;10.65;;;;;;;17.60;64.73;95166.81;5089297;28;20024;-84
2023/09/05 05:17:34;;;;;;;12.95;10.40;;;;;;;17.71;63.90;95167.78;5090788;28;20093;-84
2023/09/05 05:19:59;;;;;;;12.63;10.10;;;;;;;17.77;63.95;95187.38;5089197;28;20028;-84
2023/09/05 05:22:25;;;;;;;11.25;9.40;;;;;;;17.65;63.88;95166.91;5071048;28;20407;-85
2023/09/05 05:24:51;;;;;;;13.27;10.15;;;;;;;17.76;63.73;95185.84;5089091;28;20117;-85
2023/09/05 05:27:17;;;;;;;12.05;10.73;;;;;;;17.74;63.58;95186.31;5088343;28;20030;-85
2023/09/05 05:29:43;;;;;;;11.13;10.00;;;;;;;17.68;64.02;95181.88;5089431;28;20024;-82
2023/09/05 05:32:08;;;;;;;16.05;10.98;;;;;;;17.71;64.14;95183.69;5069943;28;20035;-85
2023/09/05 05:34:34;;;;;;;13.00;9.80;;;;;;;17.75;63.71;95181.53;5089280;28;20032;-83
2023/09/05 05:36:59;;;;;;;12.30;9.27;;;;;;;17.81;64.05;95173.28;5088222;28;20079;-85
2023/09/05 05:39:25;;;;;;;15.20;10.70;;;;;;;17.86;63.25;95172.63;5088849;28;20872;-85
2023/09/05 05:41:51;;;;;;;13.88;10.00;;;;;;;17.85;63.71;95179.44;5088319;28;20032;-85
2023/09/05 05:44:16;;;;;;;12.15;10.80;;;;;;;17.76;63.72;95178.25;5088360;28;20031;-84
2023/09/05 05:46:43;;;;;;;12.98;10.32;;;;;;;17.73;63.53;95182.00;5088857;28;20084;-84
2023/09/05 05:49:09;;;;;;;13.00;10.13;;;;;;;17.77;63.49;95185.34;5069530;28;20320;-84
2023/09/05 05:51:35;;;;;;;12.52;10.50;;;;;;;17.77;63.13;95176.25;5070772;28;20032;-84
2023/09/05 05:54:01;;;;;;;10.82;9.60;;;;;;;17.63;63.21;95169.41;5069809;28;20111;-83
2023/09/05 05:56:26;;;;;;;13.32;10.23;;;;;;;17.69;63.39;95178.63;5088813;28;20154;-84
2023/09/05 05:58:51;;;;;;;10.85;9.73;;;;;;;17.75;63.22;95178.75;5069313;28;20020;-83
2023/09/05 06:01:18;;;;;;;11.70;10.30;;;;;;;17.78;62.95;95178.56;5087759;28;20032;-84
2023/09/05 06:03:43;;;;;;;11.40;9.93;;;;;;;17.78;62.73;95195.25;5070541;28;20055;-84
2023/09/05 06:06:09;;;;;;;15.13;10.10;;;;;;;17.79;62.87;95190.44;5088126;28;20486;-84
2023/09/05 06:08:34;;;;;;;12.25;10.05;;;;;;;17.76;62.71;95192.16;5089038;28;20108;-84
2023/09/05 06:11:00;;;;;;;13.38;10.50;;;;;;;17.73;63.10;95181.25;5087605;28;20111;-84
2023/09/05 06:13:25;;;;;;;11.85;10.40;;;;;;;17.71;63.15;95186.47;5087920;28;20084;-82
2023/09/05 06:15:51;;;;;;;11.80;9.35;;;;;;;17.77;62.85;95174.22;5087606;28;20028;-84
2023/09/05 06:18:17;;;;;;;11.35;10.00;;;;;;;17.79;62.55;95179.34;5069808;28;20097;-84
2023/09/05 06:20:42;;;;;;;10.82;9.73;;;;;;;17.75;62.71;95162.81;5087403;28;20505;-84
2023/09/05 06:23:08;;;;;;;16.27;11.23;;;;;;;17.83;62.48;95168.00;5087524;28;20533;-84
2023/09/05 06:25:33;;;;;;;11.77;9.77;;;;;;;17.82;62.51;95177.59;5069791;28;20043;-84
2023/09/05 06:27:59;;;;;;;15.93;10.50;;;;;;;17.77;62.71;95167.91;5069125;28;20035;-84
2023/09/05 06:30:24;;;;;;;12.65;9.35;;;;;;;17.76;62.67;95175.47;5087800;28;20506;-83
2023/09/05 06:32:50;;;;;;;10.50;9.40;;;;;;;17.73;62.62;95172.91;5087660;28;20059;-84
2023/09/05 06:35:16;;;;;;;12.50;9.52;;;;;;;17.85;62.58;95182.22;5068924;28;20910;-85
2023/09/05 06:37:41;;;;;;;10.75;9.50;;;;;;;17.87;62.67;95182.50;5086939;28;20024;-84
2023/09/05 06:40:12;;;;;;;13.10;9.30;;;;;;;17.88;63.17;95178.47;5087467;28;20409;-85
2023/09/05 06:42:47;;;;;;;10.73;9.48;;;;;;;17.93;62.73;95191.69;5087415;28;20042;-84
2023/09/05 06:45:12;;;;;;;12.95;9.70;;;;;;;17.92;63.00;95195.72;5086836;28;20035;-84
2023/09/05 06:47:37;;;;;;;10.68;9.18;;;;;;;17.93;63.05;95194.47;5087462;28;20020;-84
2023/09/05 06:50:07;;;;;;;13.00;9.15;;;;;;;18.02;62.86;95191.63;5068655;28;20020;-84
2023/09/05 06:52:32;;;;;;;12.90;8.68;;;;;;;18.07;62.63;95190.94;5087230;28;20031;-85
2023/09/05 06:54:58;;;;;;;10.80;9.50;;;;;;;18.17;62.29;95191.59;5068435;28;20020;-84
2023/09/05 06:57:25;;;;;;;10.00;9.00;;;;;;;18.14;61.51;95161.97;5086682;28;20031;-84
2023/09/05 06:59:50;;;;;;;10.07;8.80;;;;;;;18.19;61.21;95183.56;5069145;28;20028;-84
2023/09/05 07:02:16;;;;;;;10.00;8.38;;;;;;;18.14;61.41;95175.88;5086783;28;20513;-84
2023/09/05 07:04:41;;;;;;;11.93;8.48;;;;;;;18.24;61.39;95188.44;5087093;28;20111;-84
2023/09/05 07:07:08;;;;;;;11.13;8.85;;;;;;;18.24;61.19;95185.66;5087088;28;20042;-84
2023/09/05 07:09:34;;;;;;;10.30;9.20;;;;;;;18.30;61.13;95187.28;5069543;28;20028;-84
2023/09/05 07:12:00;;;;;;;11.65;9.30;;;;;;;18.36;60.84;95197.75;5051412;28;20051;-83
2023/09/05 07:14:25;;;;;;;10.02;8.07;;;;;;;18.41;60.72;95216.53;5086802;28;20024;-83
2023/09/05 07:16:51;;;;;;;9.48;8.05;;;;;;;18.44;60.83;95212.78;5086404;28;20042;-83
2023/09/05 07:19:17;;;;;;;9.68;8.68;;;;;;;18.51;60.28;95210.38;5068609;28;20036;-83
2023/09/05 07:21:44;;;;;;;11.98;8.63;;;;;;;18.55;60.08;95212.97;5068567;28;20028;-85
2023/09/05 07:24:11;;;;;;;9.52;8.57;;;;;;;18.60;60.18;95217.84;5086128;28;20426;-85
2023/09/05 07:26:38;;;;;;;9.32;7.75;;;;;;;18.65;60.03;95211.59;5086712;28;20388;-84
2023/09/05 07:29:04;;;;;;;8.95;8.05;;;;;;;18.68;60.13;95226.59;5086338;28;20028;-84
2023/09/05 07:31:31;;;;;;;9.02;8.23;;;;;;;18.72;59.97;95227.94;5086291;28;20571;-84
2023/09/05 07:33:57;;;;;;;12.93;8.10;;;;;;;18.72;59.88;95232.75;5086051;28;20139;-84
2023/09/05 07:36:23;;;;;;;12.23;8.18;;;;;;;18.72;59.94;95241.84;5085939;28;20092;-84
2023/09/05 07:38:49;;;;;;;14.48;8.10;;;;;;;18.73;59.91;95246.16;5086506;28;20107;-83
2023/09/05 07:41:14;;;;;;;12.30;8.02;;;;;;;18.73;60.08;95240.59;5086120;28;20483;-84
2023/09/05 07:43:39;;;;;;;12.93;8.77;;;;;;;18.78;59.72;95258.66;5068022;28;20016;-84
2023/09/05 07:46:05;;;;;;;12.75;7.78;;;;;;;18.72;59.71;95257.81;5085084;28;20546;-84
2023/09/05 07:48:30;;;;;;;9.93;7.80;;;;;;;18.71;59.92;95261.84;5086395;28;20027;-84
2023/09/05 07:51:01;;;;;;;12.65;8.68;;;;;;;18.51;60.14;95251.34;5086767;28;20032;-85
2023/09/05 07:53:27;;;;;;;11.25;8.52;;;;;;;18.48;60.49;95244.75;5086845;28;20020;-83
2023/09/05 07:55:53;;;;;;;12.15;8.25;;;;;;;18.54;60.22;95248.38;5086375;28;20562;-83
2023/09/05 07:58:18;;;;;;;11.48;9.00;;;;;;;18.50;60.19;95239.47;5086057;28;20019;-85
2023/09/05 08:00:44;;;;;;;11.23;8.50;;;;;;;18.53;60.15;95244.06;5085947;28;20224;-84
2023/09/05 08:03:09;;;;;;;12.82;9.38;;;;;;;18.44;60.55;95252.53;5067928;28;20027;-83
2023/09/05 08:05:34;;;;;;;10.27;8.57;;;;;;;18.49;60.13;95256.66;5068321;28;20016;-83
2023/09/05 08:08:00;;;;;;;13.30;8.55;;;;;;;18.49;60.56;95243.50;5085546;28;20394;-82
2023/09/05 08:10:26;;;;;;;12.02;8.20;;;;;;;18.55;59.97;95236.00;5086164;28;20021;-81
2023/09/05 08:12:51;;;;;;;11.55;8.23;;;;;;;18.58;59.79;95246.19;5085405;28;20068;-86
2023/09/05 08:15:17;;;;;;;13.73;8.40;;;;;;;18.77;59.70;95240.41;5086369;28;20020;-84
2023/09/05 08:17:42;;;;;;;9.75;8.15;;;;;;;18.97;59.68;95234.09;5085918;28;20490;-83
2023/09/05 08:20:12;;;;;;;9.73;7.55;;;;;;;18.93;59.33;95237.13;5085870;28;20027;-84
2023/09/05 08:22:37;;;;;;;9.82;8.82;;;;;;;19.04;59.52;95242.09;5068744;28;20138;-84
2023/09/05 08:25:04;;;;;;;11.50;8.45;;;;;;;19.11;59.14;95255.59;5085506;28;20048;-84
2023/09/05 08:27:30;;;;;;;15.23;9.35;;;;;;;19.25;59.11;95251.22;5086377;28;20032;-84
2023/09/05 08:29:56;;;;;;;11.27;7.65;;;;;;;19.37;58.00;95252.91;5085373;28;20105;-84
2023/09/05 08:32:22;;;;;;;9.98;8.40;;;;;;;19.42;57.52;95248.66;5067914;28;20099;-83
2023/09/05 08:34:47;;;;;;;13.38;9.10;;;;;;;19.54;57.34;95267.81;5067094;28;20489;-85
2023/09/05 08:37:13;;;;;;;11.00;7.35;;;;;;;19.69;57.10;95261.44;5085545;28;20111;-84
2023/09/05 08:39:38;;;;;;;8.68;7.78;;;;;;;19.75;57.05;95259.47;5086426;28;20027;-84
2023/09/05 08:42:06;;;;;;;10.57;8.23;;;;;;;19.80;56.81;95253.97;5085729;28;20394;-84
2023/09/05 08:44:42;;;;;;;9.15;8.00;;;;;;;19.74;56.38;95238.44;5086024;28;20062;-83
2023/09/05 08:47:08;;;;;;;10.73;6.82;;;;;;;19.78;55.87;95248.09;5085309;28;20024;-84
2023/09/05 08:49:33;;;;;;;11.02;8.68;;;;;;;19.87;55.86;95255.56;5085816;28;20035;-84
2023/09/05 08:52:03;;;;;;;10.25;7.95;;;;;;;19.95;56.19;95259.44;5085380;28;20505;-84
2023/09/05 08:54:29;;;;;;;9.73;6.85;;;;;;;20.06;55.26;95262.34;5086181;28;20036;-85
2023/09/05 08:56:56;;;;;;;10.18;6.47;;;;;;;20.17;54.35;95267.28;5085871;28;20425;-83
2023/09/05 08:59:21;;;;;;;11.07;7.88;;;;;;;20.26;53.68;95275.50;5090303;28;20081;-85
2023/09/05 09:01:47;;;;;;;9.73;7.93;;;;;;;20.53;53.89;95282.66;5089331;28;20040;-83
2023/09/05 09:04:13;;;;;;;14.82;8.05;;;;;;;20.72;53.42;95273.91;5089097;28;20016;-84
2023/09/05 09:06:40;;;;;;;10.20;7.63;;;;;;;20.87;52.47;95275.31;5071009;28;20462;-84
2023/09/05 09:09:06;;;;;;;8.52;7.50;;;;;;;21.09;51.75;95266.28;5070720;28;20502;-83
2023/09/05 09:11:32;;;;;;;7.57;6.03;;;;;;;21.26;51.30;95274.03;5089419;28;20020;-85
2023/09/05 09:13:59;;;;;;;10.40;6.50;;;;;;;21.51;50.38;95278.03;5089783;28;20092;-85
2023/09/05 09:16:25;;;;;;;12.18;8.02;;;;;;;21.74;50.20;95268.47;5088923;28;20115;-85
2023/09/05 09:19:01;;;;;;;12.10;8.15;;;;;;;21.97;49.73;95272.09;5089243;28;20103;-86
2023/09/05 09:21:29;;;;;;;10.82;7.20;;;;;;;22.15;48.54;95273.72;5088701;28;20111;-84
2023/09/05 09:24:07;;;;;;;16.23;10.25;;;;;;;22.54;48.40;95262.56;5089085;28;20046;-83
2023/09/05 09:26:33;;;;;;;14.05;7.55;;;;;;;22.84;46.64;95264.88;5070677;28;20410;-84
2023/09/05 09:29:00;;;;;;;6.82;5.40;;;;;;;23.07;45.96;95255.19;5089301;28;20028;-85
2023/09/05 09:31:26;;;;;;;7.25;5.60;;;;;;;23.30;45.08;95261.53;5071176;28;20035;-85
2023/09/05 09:33:56;;;;;;;9.40;5.43;;;;;;;23.43;43.79;95267.34;5053680;28;20383;-84
2023/09/05 09:36:22;;;;;;;7.95;5.45;;;;;;;23.63;44.37;95262.72;5089273;28;20028;-85
2023/09/05 09:38:47;;;;;;;7.72;5.28;;;;;;;23.93;43.60;95269.25;5070058;28;20070;-85
2023/09/05 09:41:14;;;;;;;8.00;5.20;;;;;;;24.21;42.98;95266.31;5088944;28;20479;-84
2023/09/05 09:43:40;;;;;;;9.07;5.00;;;;;;;24.44;42.10;95266.19;5053948;28;20107;-85
2023/09/05 09:46:08;;;;;;;7.57;5.00;;;;;;;24.71;42.19;95256.78;5089769;28;20074;-85
2023/09/05 09:48:34;;;;;;;5.97;5.03;;;;;;;24.99;41.43;95255.78;5089263;28;20100;-85
2023/09/05 09:51:02;;;;;;;5.75;4.18;;;;;;;25.14;40.04;95253.38;5088340;28;20096;-85
2023/09/05 09:53:40;;;;;;;6.22;4.80;;;;;;;25.39;39.93;95254.91;5071832;28;20034;-85
2023/09/05 09:56:16;;;;;;;6.85;4.50;;;;;;;25.53;39.23;95255.03;5070082;28;20058;-84
2023/09/05 09:58:44;;;;;;;7.43;4.95;;;;;;;25.78;39.37;95258.59;5070697;28;20078;-85
2023/09/05 10:01:11;;;;;;;7.07;3.92;;;;;;;25.95;38.53;95265.56;5087735;28;20028;-86
2023/09/05 10:03:42;;;;;;;7.07;3.83;;;;;;;26.11;37.79;95255.38;5070353;28;20082;-85
2023/09/05 10:06:10;;;;;;;5.18;4.00;;;;;;;26.27;36.71;95255.69;5053930;28;20043;-86
2023/09/05 10:08:36;;;;;;;6.72;3.78;;;;;;;26.35;36.21;95259.41;5088410;28;20077;-85
2023/09/05 10:11:02;;;;;;;5.72;3.80;;;;;;;26.53;35.65;95261.47;5087754;28;20107;-86
2023/09/05 10:13:32;;;;;;;6.60;3.50;;;;;;;26.69;35.36;95254.81;5069950;28;20115;-86
2023/09/05 10:16:00;;;;;;;5.63;3.28;;;;;;;26.78;34.78;95252.88;5070585;28;20467;-83
2023/09/05 10:18:26;;;;;;;7.80;3.53;;;;;;;26.93;34.82;95248.28;5069648;28;20024;-85
2023/09/05 10:20:52;;;;;;;6.68;3.70;;;;;;;27.01;34.52;95237.09;5070144;28;20028;-86
2023/09/05 10:23:18;;;;;;;9.38;4.10;;;;;;;27.05;34.25;95242.44;5070157;28;20043;-86
2023/09/05 10:25:44;;;;;;;9.43;3.58;;;;;;;27.13;34.19;95240.53;5087769;28;20506;-86
2023/09/05 10:28:09;;;;;;;6.28;3.72;;;;;;;27.22;34.73;95243.69;5070536;28;20023;-86
2023/09/05 10:30:40;;;;;;;3.55;3.10;;;;;;;27.51;34.38;95241.88;5069388;28;20032;-86
2023/09/05 10:33:07;;;;;;;4.45;3.30;;;;;;;27.76;33.15;95248.09;5070212;28;20103;-85
2023/09/05 10:35:33;;;;;;;6.82;3.85;;;;;;;27.96;32.94;95245.91;5087374;28;20446;-85
2023/09/05 10:38:01;;;;;;;3.85;3.45;;;;;;;28.46;32.84;95244.84;5087528;28;20055;-85
2023/09/05 10:40:37;;;;;;;6.28;3.03;;;;;;;28.98;31.72;95267.81;5088147;28;20020;-85
2023/09/05 10:43:05;;;;;;;5.82;3.55;;;;;;;29.20;31.12;95255.94;5087660;28;20051;-85
2023/09/05 10:45:33;;;;;;;4.00;2.85;;;;;;;29.54;30.62;95263.59;5088060;28;20099;-86
2023/09/05 10:48:00;;;;;;;22.30;3.13;;;;;;;30.17;29.50;95252.06;5087222;28;20111;-85
2023/09/05 10:50:26;;;;;;;5.35;3.00;;;;;;;30.67;28.44;95256.19;5070761;28;20046;-86
2023/09/05 10:53:15;;;;;;;5.78;3.70;;;;;;;31.51;27.50;95247.78;5087776;28;20024;-86
2023/09/05 10:55:44;;;;;;;5.88;2.80;;;;;;;32.31;26.15;95252.91;5073982;28;20044;-86
2023/09/05 10:58:42;;;;;;;5.45;3.38;;;;;;;33.12;25.27;95250.78;5070633;28;20051;-87
2023/09/05 11:01:30;;;;;;;3.92;2.90;;;;;;;33.60;24.56;95252.69;5087600;28;20382;-87
2023/09/05 11:04:10;;;;;;;6.72;2.58;;;;;;;33.68;24.23;95256.25;5087819;28;20450;-86
2023/09/05 11:06:36;;;;;;;6.10;3.13;;;;;;;34.06;23.78;95248.03;5087993;28;20042;-87
2023/09/05 11:09:07;;;;;;;5.15;3.38;;;;;;;34.38;23.53;95249.22;5069132;28;20020;-87
2023/09/05 11:11:37;;;;;;;4.22;2.83;;;;;;;34.67;23.02;95251.53;5087608;28;20028;-86
2023/09/05 11:14:09;;;;;;;6.43;2.70;;;;;;;35.11;22.29;95240.06;5086783;28;20400;-87
2023/09/05 11:16:49;;;;;;;;;;;;;;;35.48;21.62;95254.34;5069763;28;20055;-87
2023/09/05 11:19:38;;;;;;;4.90;3.15;;;;;;;35.87;21.16;95255.19;5086972;28;19919;-87
2023/09/05 11:22:26;;;;;;;3.65;2.20;;;;;;;35.04;21.79;95244.56;5085630;28;20031;-87
2023/09/05 11:24:54;;;;;;;4.70;2.70;;;;;;;33.70;23.88;95236.44;5086640;28;20506;-87
2023/09/05 11:27:25;;;;;;;3.67;2.30;;;;;;;32.86;24.87;95229.31;5086690;28;20040;-86
2023/09/05 11:29:55;;;;;;;8.43;3.65;;;;;;;31.84;25.67;95220.28;5087949;28;20035;-86